Aérodrome :
LOGIN :

S'inscrire | Disclaimer

   EN    FR    IT 

 










Légende :    VFR   VFR Marginal   IFR   IFR Intensif   IFR Très Intensif
Visi : 
Plafond : 
>= 8 km
>= 3000ft
5 à 8 km
1000 à 3000 ft
1500m à 5 km
500 à 1000 ft
800 à 1500m
200 à 500 ft
< 800m
< 200 ft
Symboles :   Orages  Brouillard  Fortes neiges  Fortes précipitations  Vent > 20 kt
SIGMETs :   Divers  Orages  Givrage  Turbulence  Onde Orograph.  Cendres Volcan.







- Altitude de l'aérodrome : 529 ft
- Code IATA : CHR
- Voir les cartes d'approche


LFLX - Chateauroux

DERNIER METAR :
  • 280000Z AUTO 29003KT CAVOK 02/01 Q1019 TEMPO 3000 BR

METARs EXPIRÉS :
  • 272330Z AUTO 29002KT CAVOK 02/00 Q1019 TEMPO 3000 BR
  • 272300Z AUTO 30005KT CAVOK 03/01 Q1019 TEMPO 3000 BR
  • 272230Z AUTO 30004KT CAVOK 04/02 Q1019 TEMPO 3000 BR
  • 272200Z AUTO 29005KT CAVOK 05/02 Q1019 TEMPO 3000 BR
  • 272130Z AUTO 30005KT CAVOK 05/02 Q1019 TEMPO 3000 BR

TAF TAF LFLX
Valide du 28 à 00h jusqu'au 29 à 06h UTC


272300Z 2800/2906 VRB03KT CAVOK
PROB30
TEMPO 2800/2807 3000 BR NSC
PROB30
TEMPO 2803/2806 0800 BCFG
BECMG 2807/2809 24005KT
PROB30
TEMPO 2812/2818 SHRA SCT020TCU
BECMG 2818/2820 VRB03KT
TEMPO 2900/2906 0300 FG VV///
Pas de NOTAMs connus pour ce terrain.



MET'MAP, la Météo Aéronautique d'un coup d'oeil ! - Copyright ORBIFLY Décembre 2007 - Disclaimer

ORBIFLY MET'MAP TEAM :

Programmation & Développement : Alexandra Zaïnal
Conception & Développement : Baudouin d'Aumeries
Co-Programmation & Développement : Marc-Olivier Méhu
Soutien technique & logistique : Manuel Goepfert

Contact : metmap@orbifly.com




SOURCES & CREDITS :

   NOAA